sensor_id;sensor_type;location;lat;lon;timestamp;temperature;humidity
14471;DHT22;7321;50.802;4.336;2024-02-04T00:02:01;10.90;99.90
14471;DHT22;7321;50.802;4.336;2024-02-04T00:04:35;11.00;99.90
14471;DHT22;7321;50.802;4.336;2024-02-04T00:07:01;10.80;99.90
14471;DHT22;7321;50.802;4.336;2024-02-04T00:09:30;10.80;99.90
14471;DHT22;7321;50.802;4.336;2024-02-04T00:12:00;10.80;99.90
14471;DHT22;7321;50.802;4.336;2024-02-04T00:14:30;10.80;99.90
14471;DHT22;7321;50.802;4.336;2024-02-04T00:17:00;10.90;99.90
14471;DHT22;7321;50.802;4.336;2024-02-04T00:19:27;11.00;99.90
14471;DHT22;7321;50.802;4.336;2024-02-04T00:21:56;10.80;99.90
14471;DHT22;7321;50.802;4.336;2024-02-04T00:24:26;10.80;99.90
14471;DHT22;7321;50.802;4.336;2024-02-04T00:26:53;10.90;99.90
14471;DHT22;7321;50.802;4.336;2024-02-04T00:29:21;10.90;99.90
14471;DHT22;7321;50.802;4.336;2024-02-04T00:31:48;10.90;99.90
14471;DHT22;7321;50.802;4.336;2024-02-04T00:34:17;10.90;99.90
14471;DHT22;7321;50.802;4.336;2024-02-04T00:36:46;10.90;99.90
14471;DHT22;7321;50.802;4.336;2024-02-04T00:39:15;11.00;99.90
14471;DHT22;7321;50.802;4.336;2024-02-04T00:41:43;11.00;99.90
14471;DHT22;7321;50.802;4.336;2024-02-04T00:44:12;11.00;99.90
14471;DHT22;7321;50.802;4.336;2024-02-04T00:46:40;11.10;99.90
14471;DHT22;7321;50.802;4.336;2024-02-04T00:49:06;11.10;99.90
14471;DHT22;7321;50.802;4.336;2024-02-04T00:51:34;11.10;99.90
14471;DHT22;7321;50.802;4.336;2024-02-04T00:54:01;11.30;99.90
14471;DHT22;7321;50.802;4.336;2024-02-04T00:56:28;11.00;99.90
14471;DHT22;7321;50.802;4.336;2024-02-04T00:58:54;10.90;99.90
14471;DHT22;7321;50.802;4.336;2024-02-04T01:01:23;10.90;99.90
14471;DHT22;7321;50.802;4.336;2024-02-04T01:03:50;11.00;99.90
14471;DHT22;7321;50.802;4.336;2024-02-04T01:06:20;10.90;99.90
14471;DHT22;7321;50.802;4.336;2024-02-04T01:08:48;10.80;99.90
14471;DHT22;7321;50.802;4.336;2024-02-04T01:11:15;10.80;99.90
14471;DHT22;7321;50.802;4.336;2024-02-04T01:13:44;10.80;99.90
14471;DHT22;7321;50.802;4.336;2024-02-04T01:16:10;10.80;99.90
14471;DHT22;7321;50.802;4.336;2024-02-04T01:18:37;10.80;99.90
14471;DHT22;7321;50.802;4.336;2024-02-04T01:21:05;10.80;99.90
14471;DHT22;7321;50.802;4.336;2024-02-04T01:23:33;10.80;99.90
14471;DHT22;7321;50.802;4.336;2024-02-04T01:26:03;10.90;99.90
14471;DHT22;7321;50.802;4.336;2024-02-04T01:28:31;10.90;99.90
14471;DHT22;7321;50.802;4.336;2024-02-04T01:31:00;11.00;99.90
14471;DHT22;7321;50.802;4.336;2024-02-04T01:33:30;11.00;99.90
14471;DHT22;7321;50.802;4.336;2024-02-04T01:35:58;11.00;99.90
14471;DHT22;7321;50.802;4.336;2024-02-04T01:38:30;10.90;99.90
14471;DHT22;7321;50.802;4.336;2024-02-04T01:40:58;10.90;99.90
14471;DHT22;7321;50.802;4.336;2024-02-04T01:43:26;10.90;99.90
14471;DHT22;7321;50.802;4.336;2024-02-04T01:45:56;10.90;99.90
14471;DHT22;7321;50.802;4.336;2024-02-04T01:48:25;10.90;99.90
14471;DHT22;7321;50.802;4.336;2024-02-04T01:50:55;10.90;99.90
14471;DHT22;7321;50.802;4.336;2024-02-04T01:53:26;11.00;99.90
14471;DHT22;7321;50.802;4.336;2024-02-04T01:55:55;11.00;99.90
14471;DHT22;7321;50.802;4.336;2024-02-04T01:58:22;11.10;99.90
14471;DHT22;7321;50.802;4.336;2024-02-04T02:00:49;11.10;99.90
14471;DHT22;7321;50.802;4.336;2024-02-04T02:03:17;11.00;99.90
14471;DHT22;7321;50.802;4.336;2024-02-04T02:05:46;11.10;99.90
14471;DHT22;7321;50.802;4.336;2024-02-04T02:08:14;11.10;99.90
14471;DHT22;7321;50.802;4.336;2024-02-04T02:10:41;11.10;99.90
14471;DHT22;7321;50.802;4.336;2024-02-04T02:13:23;11.00;99.90
14471;DHT22;7321;50.802;4.336;2024-02-04T02:15:56;11.00;99.90
14471;DHT22;7321;50.802;4.336;2024-02-04T02:18:43;11.10;99.90
14471;DHT22;7321;50.802;4.336;2024-02-04T02:26:43;11.30;99.90
14471;DHT22;7321;50.802;4.336;2024-02-04T02:29:11;11.30;99.90
14471;DHT22;7321;50.802;4.336;2024-02-04T02:31:39;11.20;99.90
14471;DHT22;7321;50.802;4.336;2024-02-04T02:34:10;11.20;99.90
14471;DHT22;7321;50.802;4.336;2024-02-04T02:37:03;11.20;99.90
14471;DHT22;7321;50.802;4.336;2024-02-04T02:39:40;11.00;99.90
14471;DHT22;7321;50.802;4.336;2024-02-04T02:42:10;11.10;99.90
14471;DHT22;7321;50.802;4.336;2024-02-04T02:44:39;11.10;99.90
14471;DHT22;7321;50.802;4.336;2024-02-04T02:47:06;11.10;99.90
14471;DHT22;7321;50.802;4.336;2024-02-04T02:49:34;11.10;99.90
14471;DHT22;7321;50.802;4.336;2024-02-04T02:52:00;11.30;99.90
14471;DHT22;7321;50.802;4.336;2024-02-04T02:54:28;11.10;99.90
14471;DHT22;7321;50.802;4.336;2024-02-04T02:56:55;11.00;99.90
14471;DHT22;7321;50.802;4.336;2024-02-04T02:59:22;11.00;99.90
14471;DHT22;7321;50.802;4.336;2024-02-04T03:01:48;11.10;99.90
14471;DHT22;7321;50.802;4.336;2024-02-04T03:04:17;11.20;99.90
14471;DHT22;7321;50.802;4.336;2024-02-04T03:06:45;11.20;99.90
14471;DHT22;7321;50.802;4.336;2024-02-04T03:09:12;11.10;99.90
14471;DHT22;7321;50.802;4.336;2024-02-04T03:11:40;11.10;99.90
14471;DHT22;7321;50.802;4.336;2024-02-04T03:14:08;11.20;99.90
14471;DHT22;7321;50.802;4.336;2024-02-04T03:16:34;11.30;99.90
14471;DHT22;7321;50.802;4.336;2024-02-04T03:19:05;11.20;99.90
14471;DHT22;7321;50.802;4.336;2024-02-04T03:21:35;11.10;99.90
14471;DHT22;7321;50.802;4.336;2024-02-04T03:24:01;11.10;99.90
14471;DHT22;7321;50.802;4.336;2024-02-04T03:26:29;11.10;99.90
14471;DHT22;7321;50.802;4.336;2024-02-04T03:28:56;11.10;99.90
14471;DHT22;7321;50.802;4.336;2024-02-04T03:31:24;11.10;99.90
14471;DHT22;7321;50.802;4.336;2024-02-04T03:33:53;11.20;99.90
14471;DHT22;7321;50.802;4.336;2024-02-04T03:36:22;11.20;99.90
14471;DHT22;7321;50.802;4.336;2024-02-04T03:38:50;11.20;99.90
14471;DHT22;7321;50.802;4.336;2024-02-04T03:41:18;11.30;99.90
14471;DHT22;7321;50.802;4.336;2024-02-04T03:43:46;11.20;99.90
14471;DHT22;7321;50.802;4.336;2024-02-04T03:46:15;11.30;99.90
14471;DHT22;7321;50.802;4.336;2024-02-04T03:48:42;11.30;99.90
14471;DHT22;7321;50.802;4.336;2024-02-04T03:51:15;11.20;99.90
14471;DHT22;7321;50.802;4.336;2024-02-04T03:53:43;11.10;99.90
14471;DHT22;7321;50.802;4.336;2024-02-04T03:56:10;11.20;99.90
14471;DHT22;7321;50.802;4.336;2024-02-04T03:58:37;11.20;99.90
14471;DHT22;7321;50.802;4.336;2024-02-04T04:01:05;11.10;99.90
14471;DHT22;7321;50.802;4.336;2024-02-04T04:03:31;11.10;99.90
14471;DHT22;7321;50.802;4.336;2024-02-04T04:05:58;11.10;99.90
14471;DHT22;7321;50.802;4.336;2024-02-04T04:08:26;11.10;99.90
14471;DHT22;7321;50.802;4.336;2024-02-04T04:10:52;11.20;99.90
14471;DHT22;7321;50.802;4.336;2024-02-04T04:13:18;11.20;99.90
14471;DHT22;7321;50.802;4.336;2024-02-04T04:15:48;11.10;99.90
14471;DHT22;7321;50.802;4.336;2024-02-04T04:18:17;11.10;99.90
14471;DHT22;7321;50.802;4.336;2024-02-04T04:20:48;11.10;99.90
14471;DHT22;7321;50.802;4.336;2024-02-04T04:23:15;11.10;99.90
14471;DHT22;7321;50.802;4.336;2024-02-04T04:25:45;11.10;99.90
14471;DHT22;7321;50.802;4.336;2024-02-04T04:28:13;11.00;99.90
14471;DHT22;7321;50.802;4.336;2024-02-04T04:30:41;11.00;99.90
14471;DHT22;7321;50.802;4.336;2024-02-04T04:33:08;11.00;99.90
14471;DHT22;7321;50.802;4.336;2024-02-04T04:35:36;10.90;99.90
14471;DHT22;7321;50.802;4.336;2024-02-04T04:38:04;11.00;99.90
14471;DHT22;7321;50.802;4.336;2024-02-04T04:40:33;11.10;99.90
14471;DHT22;7321;50.802;4.336;2024-02-04T04:43:01;11.10;99.90
14471;DHT22;7321;50.802;4.336;2024-02-04T04:45:29;11.20;99.90
14471;DHT22;7321;50.802;4.336;2024-02-04T04:47:56;11.10;99.90
14471;DHT22;7321;50.802;4.336;2024-02-04T04:50:24;11.10;99.90
14471;DHT22;7321;50.802;4.336;2024-02-04T04:52:50;11.20;99.90
14471;DHT22;7321;50.802;4.336;2024-02-04T04:55:19;11.10;99.90
14471;DHT22;7321;50.802;4.336;2024-02-04T04:57:47;11.30;99.90
14471;DHT22;7321;50.802;4.336;2024-02-04T05:00:16;11.10;99.90
14471;DHT22;7321;50.802;4.336;2024-02-04T05:02:42;11.10;99.90
14471;DHT22;7321;50.802;4.336;2024-02-04T05:05:11;11.10;99.90
14471;DHT22;7321;50.802;4.336;2024-02-04T05:07:39;11.10;99.90
14471;DHT22;7321;50.802;4.336;2024-02-04T05:10:08;11.10;99.90
14471;DHT22;7321;50.802;4.336;2024-02-04T05:12:36;11.10;99.90
14471;DHT22;7321;50.802;4.336;2024-02-04T05:15:05;11.00;99.90
14471;DHT22;7321;50.802;4.336;2024-02-04T05:17:33;11.10;99.90
14471;DHT22;7321;50.802;4.336;2024-02-04T05:20:03;11.00;99.90
14471;DHT22;7321;50.802;4.336;2024-02-04T05:22:30;10.90;99.90
14471;DHT22;7321;50.802;4.336;2024-02-04T05:24:57;10.90;99.90
14471;DHT22;7321;50.802;4.336;2024-02-04T05:27:26;10.90;99.90
14471;DHT22;7321;50.802;4.336;2024-02-04T05:29:53;10.90;99.90
14471;DHT22;7321;50.802;4.336;2024-02-04T05:32:23;10.90;99.90
14471;DHT22;7321;50.802;4.336;2024-02-04T05:34:51;10.90;99.90
14471;DHT22;7321;50.802;4.336;2024-02-04T05:37:21;11.00;99.90
14471;DHT22;7321;50.802;4.336;2024-02-04T05:39:50;11.10;99.90
14471;DHT22;7321;50.802;4.336;2024-02-04T05:42:16;10.90;99.90
14471;DHT22;7321;50.802;4.336;2024-02-04T05:44:43;10.90;99.90
14471;DHT22;7321;50.802;4.336;2024-02-04T05:47:12;11.00;99.90
14471;DHT22;7321;50.802;4.336;2024-02-04T05:49:39;11.10;99.90
14471;DHT22;7321;50.802;4.336;2024-02-04T05:52:08;11.00;99.90
14471;DHT22;7321;50.802;4.336;2024-02-04T05:54:39;11.00;99.90
14471;DHT22;7321;50.802;4.336;2024-02-04T05:57:07;10.90;99.90
14471;DHT22;7321;50.802;4.336;2024-02-04T05:59:38;10.90;99.90
14471;DHT22;7321;50.802;4.336;2024-02-04T06:02:05;11.00;99.90
14471;DHT22;7321;50.802;4.336;2024-02-04T06:04:33;11.10;99.90
14471;DHT22;7321;50.802;4.336;2024-02-04T06:07:00;11.00;99.90
14471;DHT22;7321;50.802;4.336;2024-02-04T06:09:30;11.00;99.90
14471;DHT22;7321;50.802;4.336;2024-02-04T06:11:59;11.00;99.90
14471;DHT22;7321;50.802;4.336;2024-02-04T06:14:26;11.00;99.90
14471;DHT22;7321;50.802;4.336;2024-02-04T06:16:54;11.10;99.90
14471;DHT22;7321;50.802;4.336;2024-02-04T06:19:22;11.00;99.90
14471;DHT22;7321;50.802;4.336;2024-02-04T06:21:49;10.90;99.90
14471;DHT22;7321;50.802;4.336;2024-02-04T06:24:15;10.80;99.90
14471;DHT22;7321;50.802;4.336;2024-02-04T06:26:43;10.80;99.90
14471;DHT22;7321;50.802;4.336;2024-02-04T06:29:10;10.80;99.90
14471;DHT22;7321;50.802;4.336;2024-02-04T06:31:37;10.80;99.90
14471;DHT22;7321;50.802;4.336;2024-02-04T06:34:06;10.80;99.90
14471;DHT22;7321;50.802;4.336;2024-02-04T06:36:33;10.80;99.90
14471;DHT22;7321;50.802;4.336;2024-02-04T06:38:59;10.90;99.90
14471;DHT22;7321;50.802;4.336;2024-02-04T06:41:28;10.90;99.90
14471;DHT22;7321;50.802;4.336;2024-02-04T06:43:56;11.00;99.90
14471;DHT22;7321;50.802;4.336;2024-02-04T06:46:29;10.90;99.90
14471;DHT22;7321;50.802;4.336;2024-02-04T06:48:56;10.90;99.90
14471;DHT22;7321;50.802;4.336;2024-02-04T06:51:23;10.90;99.90
14471;DHT22;7321;50.802;4.336;2024-02-04T06:53:49;10.90;99.90
14471;DHT22;7321;50.802;4.336;2024-02-04T06:56:17;10.90;99.90
14471;DHT22;7321;50.802;4.336;2024-02-04T06:58:45;11.00;99.90
14471;DHT22;7321;50.802;4.336;2024-02-04T07:01:12;10.80;99.90
14471;DHT22;7321;50.802;4.336;2024-02-04T07:03:41;10.80;99.90
14471;DHT22;7321;50.802;4.336;2024-02-04T07:06:08;10.80;99.90
14471;DHT22;7321;50.802;4.336;2024-02-04T07:08:35;10.80;99.90
14471;DHT22;7321;50.802;4.336;2024-02-04T07:11:01;10.80;99.90
14471;DHT22;7321;50.802;4.336;2024-02-04T07:13:30;10.80;99.90
14471;DHT22;7321;50.802;4.336;2024-02-04T07:15:56;10.90;99.90
14471;DHT22;7321;50.802;4.336;2024-02-04T07:18:26;10.80;99.90
14471;DHT22;7321;50.802;4.336;2024-02-04T07:20:54;10.80;99.90
14471;DHT22;7321;50.802;4.336;2024-02-04T07:23:22;10.80;99.90
14471;DHT22;7321;50.802;4.336;2024-02-04T07:25:51;10.80;99.90
14471;DHT22;7321;50.802;4.336;2024-02-04T07:28:17;10.80;99.90
14471;DHT22;7321;50.802;4.336;2024-02-04T07:30:43;10.80;99.90
14471;DHT22;7321;50.802;4.336;2024-02-04T07:33:12;10.80;99.90
14471;DHT22;7321;50.802;4.336;2024-02-04T07:35:38;10.80;99.90
14471;DHT22;7321;50.802;4.336;2024-02-04T07:38:07;10.80;99.90
14471;DHT22;7321;50.802;4.336;2024-02-04T07:40:37;10.80;99.90
14471;DHT22;7321;50.802;4.336;2024-02-04T07:43:06;10.70;99.90
14471;DHT22;7321;50.802;4.336;2024-02-04T07:45:35;10.70;99.90
14471;DHT22;7321;50.802;4.336;2024-02-04T07:48:01;10.70;99.90
14471;DHT22;7321;50.802;4.336;2024-02-04T07:50:30;10.80;99.90
14471;DHT22;7321;50.802;4.336;2024-02-04T07:52:57;10.90;99.90
14471;DHT22;7321;50.802;4.336;2024-02-04T07:55:26;10.90;99.90
14471;DHT22;7321;50.802;4.336;2024-02-04T07:57:54;11.00;99.90
14471;DHT22;7321;50.802;4.336;2024-02-04T08:00:22;11.10;99.90
14471;DHT22;7321;50.802;4.336;2024-02-04T08:02:50;11.00;99.90
14471;DHT22;7321;50.802;4.336;2024-02-04T08:05:17;11.00;99.90
14471;DHT22;7321;50.802;4.336;2024-02-04T08:07:45;11.10;99.90
14471;DHT22;7321;50.802;4.336;2024-02-04T08:10:11;11.10;99.90
14471;DHT22;7321;50.802;4.336;2024-02-04T08:12:38;11.10;99.90
14471;DHT22;7321;50.802;4.336;2024-02-04T08:15:07;11.20;99.90
14471;DHT22;7321;50.802;4.336;2024-02-04T08:17:36;11.10;99.90
14471;DHT22;7321;50.802;4.336;2024-02-04T08:20:04;11.20;99.90
14471;DHT22;7321;50.802;4.336;2024-02-04T08:22:33;11.10;99.90
14471;DHT22;7321;50.802;4.336;2024-02-04T08:25:00;11.20;99.90
14471;DHT22;7321;50.802;4.336;2024-02-04T08:27:31;11.20;99.90
14471;DHT22;7321;50.802;4.336;2024-02-04T08:29:59;11.10;99.90
14471;DHT22;7321;50.802;4.336;2024-02-04T08:32:26;11.20;99.90
14471;DHT22;7321;50.802;4.336;2024-02-04T08:34:54;11.10;99.90
14471;DHT22;7321;50.802;4.336;2024-02-04T08:37:21;11.20;99.90
14471;DHT22;7321;50.802;4.336;2024-02-04T08:39:49;11.20;99.90
14471;DHT22;7321;50.802;4.336;2024-02-04T08:42:16;11.30;99.90
14471;DHT22;7321;50.802;4.336;2024-02-04T08:44:43;11.50;99.90
14471;DHT22;7321;50.802;4.336;2024-02-04T08:47:12;11.50;99.90
14471;DHT22;7321;50.802;4.336;2024-02-04T08:49:42;11.50;99.90
14471;DHT22;7321;50.802;4.336;2024-02-04T08:52:58;11.40;99.90
14471;DHT22;7321;50.802;4.336;2024-02-04T08:55:36;11.40;99.90
14471;DHT22;7321;50.802;4.336;2024-02-04T08:58:12;11.30;99.90
14471;DHT22;7321;50.802;4.336;2024-02-04T09:01:01;11.30;99.90
14471;DHT22;7321;50.802;4.336;2024-02-04T09:03:27;11.30;99.90
14471;DHT22;7321;50.802;4.336;2024-02-04T09:05:53;11.30;99.90
14471;DHT22;7321;50.802;4.336;2024-02-04T09:08:20;11.30;99.90
14471;DHT22;7321;50.802;4.336;2024-02-04T09:10:47;11.30;99.90
14471;DHT22;7321;50.802;4.336;2024-02-04T09:13:13;11.40;99.90
14471;DHT22;7321;50.802;4.336;2024-02-04T09:15:46;11.40;99.90
14471;DHT22;7321;50.802;4.336;2024-02-04T09:18:22;11.30;99.90
14471;DHT22;7321;50.802;4.336;2024-02-04T09:20:49;11.30;99.90
14471;DHT22;7321;50.802;4.336;2024-02-04T09:23:17;11.30;99.90
14471;DHT22;7321;50.802;4.336;2024-02-04T09:25:43;11.30;99.90
14471;DHT22;7321;50.802;4.336;2024-02-04T09:28:11;11.20;99.90
14471;DHT22;7321;50.802;4.336;2024-02-04T09:30:39;11.30;99.90
14471;DHT22;7321;50.802;4.336;2024-02-04T09:33:07;11.30;99.90
14471;DHT22;7321;50.802;4.336;2024-02-04T09:38:27;11.40;99.90
14471;DHT22;7321;50.802;4.336;2024-02-04T09:40:55;11.40;99.90
14471;DHT22;7321;50.802;4.336;2024-02-04T09:43:22;11.30;99.90
14471;DHT22;7321;50.802;4.336;2024-02-04T09:45:51;11.40;99.90
14471;DHT22;7321;50.802;4.336;2024-02-04T09:48:18;11.40;99.90
14471;DHT22;7321;50.802;4.336;2024-02-04T09:50:47;11.40;99.90
14471;DHT22;7321;50.802;4.336;2024-02-04T09:53:15;11.30;99.90
14471;DHT22;7321;50.802;4.336;2024-02-04T09:55:47;11.20;99.90
14471;DHT22;7321;50.802;4.336;2024-02-04T09:58:17;11.20;99.90
14471;DHT22;7321;50.802;4.336;2024-02-04T10:00:47;11.20;99.90
14471;DHT22;7321;50.802;4.336;2024-02-04T10:03:16;11.20;99.90
14471;DHT22;7321;50.802;4.336;2024-02-04T10:05:43;11.20;99.90
14471;DHT22;7321;50.802;4.336;2024-02-04T10:08:11;11.30;99.90
14471;DHT22;7321;50.802;4.336;2024-02-04T10:10:38;11.20;99.90
14471;DHT22;7321;50.802;4.336;2024-02-04T10:13:09;11.30;99.90
14471;DHT22;7321;50.802;4.336;2024-02-04T10:15:35;11.30;99.90
14471;DHT22;7321;50.802;4.336;2024-02-04T10:18:04;11.30;99.90
14471;DHT22;7321;50.802;4.336;2024-02-04T10:20:31;11.30;99.90
14471;DHT22;7321;50.802;4.336;2024-02-04T10:22:58;11.40;99.90
14471;DHT22;7321;50.802;4.336;2024-02-04T10:25:26;11.40;99.90
14471;DHT22;7321;50.802;4.336;2024-02-04T10:27:54;11.50;99.90
14471;DHT22;7321;50.802;4.336;2024-02-04T10:30:21;11.50;99.90
14471;DHT22;7321;50.802;4.336;2024-02-04T10:32:53;11.60;99.90
14471;DHT22;7321;50.802;4.336;2024-02-04T10:35:23;11.50;99.90
14471;DHT22;7321;50.802;4.336;2024-02-04T10:37:51;11.60;99.90
14471;DHT22;7321;50.802;4.336;2024-02-04T10:40:18;11.70;99.90
14471;DHT22;7321;50.802;4.336;2024-02-04T10:42:46;11.70;99.90
14471;DHT22;7321;50.802;4.336;2024-02-04T10:45:17;11.70;99.90
14471;DHT22;7321;50.802;4.336;2024-02-04T10:47:55;11.70;99.90
14471;DHT22;7321;50.802;4.336;2024-02-04T10:50:24;11.70;99.90
14471;DHT22;7321;50.802;4.336;2024-02-04T10:52:57;11.60;99.90
14471;DHT22;7321;50.802;4.336;2024-02-04T10:55:27;11.60;99.90
14471;DHT22;7321;50.802;4.336;2024-02-04T10:57:57;11.70;99.90
14471;DHT22;7321;50.802;4.336;2024-02-04T11:00:26;11.70;99.90
14471;DHT22;7321;50.802;4.336;2024-02-04T11:02:57;11.70;99.90
14471;DHT22;7321;50.802;4.336;2024-02-04T11:05:32;11.80;99.90
14471;DHT22;7321;50.802;4.336;2024-02-04T11:08:06;11.80;99.90
14471;DHT22;7321;50.802;4.336;2024-02-04T11:10:35;11.90;99.90
14471;DHT22;7321;50.802;4.336;2024-02-04T11:13:11;11.80;99.90
14471;DHT22;7321;50.802;4.336;2024-02-04T11:15:40;11.90;99.90
14471;DHT22;7321;50.802;4.336;2024-02-04T11:18:35;11.90;99.90
14471;DHT22;7321;50.802;4.336;2024-02-04T11:27:06;11.90;99.90
14471;DHT22;7321;50.802;4.336;2024-02-04T11:29:32;11.90;99.90
14471;DHT22;7321;50.802;4.336;2024-02-04T11:32:04;11.90;99.90
14471;DHT22;7321;50.802;4.336;2024-02-04T11:34:33;11.80;99.90
14471;DHT22;7321;50.802;4.336;2024-02-04T11:37:00;11.70;99.90
14471;DHT22;7321;50.802;4.336;2024-02-04T11:39:30;11.80;99.90
14471;DHT22;7321;50.802;4.336;2024-02-04T11:41:57;11.70;99.90
14471;DHT22;7321;50.802;4.336;2024-02-04T11:44:25;11.70;99.90
14471;DHT22;7321;50.802;4.336;2024-02-04T11:46:55;11.70;99.90
14471;DHT22;7321;50.802;4.336;2024-02-04T11:49:25;11.80;99.90
14471;DHT22;7321;50.802;4.336;2024-02-04T11:51:52;11.80;99.90
14471;DHT22;7321;50.802;4.336;2024-02-04T11:54:21;11.70;99.90
14471;DHT22;7321;50.802;4.336;2024-02-04T11:56:49;11.70;99.90
14471;DHT22;7321;50.802;4.336;2024-02-04T11:59:24;11.60;99.90
14471;DHT22;7321;50.802;4.336;2024-02-04T12:01:56;11.70;99.90
14471;DHT22;7321;50.802;4.336;2024-02-04T12:04:23;11.70;99.90
14471;DHT22;7321;50.802;4.336;2024-02-04T12:06:50;11.70;99.90
14471;DHT22;7321;50.802;4.336;2024-02-04T12:09:21;11.70;99.90
14471;DHT22;7321;50.802;4.336;2024-02-04T12:11:51;11.70;99.90
14471;DHT22;7321;50.802;4.336;2024-02-04T12:14:22;11.70;99.90
14471;DHT22;7321;50.802;4.336;2024-02-04T12:16:49;11.60;99.90
14471;DHT22;7321;50.802;4.336;2024-02-04T12:19:15;11.70;99.90
14471;DHT22;7321;50.802;4.336;2024-02-04T12:21:43;11.60;99.90
14471;DHT22;7321;50.802;4.336;2024-02-04T12:24:10;11.80;99.90
14471;DHT22;7321;50.802;4.336;2024-02-04T12:26:37;11.80;99.90
14471;DHT22;7321;50.802;4.336;2024-02-04T12:29:06;11.80;99.90
14471;DHT22;7321;50.802;4.336;2024-02-04T12:31:34;11.80;99.90
14471;DHT22;7321;50.802;4.336;2024-02-04T12:34:01;11.70;99.90
14471;DHT22;7321;50.802;4.336;2024-02-04T12:36:32;11.70;99.90
14471;DHT22;7321;50.802;4.336;2024-02-04T12:39:00;11.70;99.90
14471;DHT22;7321;50.802;4.336;2024-02-04T12:41:29;11.80;99.90
14471;DHT22;7321;50.802;4.336;2024-02-04T12:43:59;11.80;99.90
14471;DHT22;7321;50.802;4.336;2024-02-04T12:46:32;11.90;99.90
14471;DHT22;7321;50.802;4.336;2024-02-04T12:48:59;11.90;99.90
14471;DHT22;7321;50.802;4.336;2024-02-04T12:51:26;11.80;99.90
14471;DHT22;7321;50.802;4.336;2024-02-04T12:54:09;11.70;99.90
14471;DHT22;7321;50.802;4.336;2024-02-04T12:56:49;11.70;99.90
14471;DHT22;7321;50.802;4.336;2024-02-04T12:59:29;11.60;99.90
14471;DHT22;7321;50.802;4.336;2024-02-04T13:02:02;11.70;99.90
14471;DHT22;7321;50.802;4.336;2024-02-04T13:07:07;11.70;99.90
14471;DHT22;7321;50.802;4.336;2024-02-04T13:09:36;11.80;99.90
14471;DHT22;7321;50.802;4.336;2024-02-04T13:12:07;11.80;99.90
14471;DHT22;7321;50.802;4.336;2024-02-04T13:14:36;12.00;99.90
14471;DHT22;7321;50.802;4.336;2024-02-04T13:17:06;12.00;99.90
14471;DHT22;7321;50.802;4.336;2024-02-04T13:19:37;11.90;99.90
14471;DHT22;7321;50.802;4.336;2024-02-04T13:22:06;11.80;99.90
14471;DHT22;7321;50.802;4.336;2024-02-04T13:24:39;11.90;99.90
14471;DHT22;7321;50.802;4.336;2024-02-04T13:27:07;11.70;99.90
14471;DHT22;7321;50.802;4.336;2024-02-04T13:29:37;11.80;99.90
14471;DHT22;7321;50.802;4.336;2024-02-04T13:32:07;11.70;99.90
14471;DHT22;7321;50.802;4.336;2024-02-04T13:34:37;11.70;99.90
14471;DHT22;7321;50.802;4.336;2024-02-04T13:37:06;11.60;99.90
14471;DHT22;7321;50.802;4.336;2024-02-04T13:39:33;11.60;99.90
14471;DHT22;7321;50.802;4.336;2024-02-04T13:42:01;11.60;99.90
14471;DHT22;7321;50.802;4.336;2024-02-04T13:44:32;11.70;99.90
14471;DHT22;7321;50.802;4.336;2024-02-04T13:46:58;11.60;99.90
14471;DHT22;7321;50.802;4.336;2024-02-04T13:49:23;11.50;99.90
14471;DHT22;7321;50.802;4.336;2024-02-04T13:51:49;11.60;99.90
14471;DHT22;7321;50.802;4.336;2024-02-04T13:54:15;11.40;99.90
14471;DHT22;7321;50.802;4.336;2024-02-04T13:56:41;11.40;99.90
14471;DHT22;7321;50.802;4.336;2024-02-04T13:59:10;11.40;99.90
14471;DHT22;7321;50.802;4.336;2024-02-04T14:01:36;11.40;99.90
14471;DHT22;7321;50.802;4.336;2024-02-04T14:04:02;11.30;99.90
14471;DHT22;7321;50.802;4.336;2024-02-04T14:06:28;11.50;99.90
14471;DHT22;7321;50.802;4.336;2024-02-04T14:08:56;11.40;99.90
14471;DHT22;7321;50.802;4.336;2024-02-04T14:11:22;11.50;99.90
14471;DHT22;7321;50.802;4.336;2024-02-04T14:13:49;11.50;99.90
14471;DHT22;7321;50.802;4.336;2024-02-04T14:16:15;11.60;99.90
14471;DHT22;7321;50.802;4.336;2024-02-04T14:18:43;11.60;99.90
14471;DHT22;7321;50.802;4.336;2024-02-04T14:21:11;11.60;99.90
14471;DHT22;7321;50.802;4.336;2024-02-04T14:23:40;11.50;99.90
14471;DHT22;7321;50.802;4.336;2024-02-04T14:26:06;11.50;99.90
14471;DHT22;7321;50.802;4.336;2024-02-04T14:28:36;11.50;99.90
14471;DHT22;7321;50.802;4.336;2024-02-04T14:31:07;11.50;99.90
14471;DHT22;7321;50.802;4.336;2024-02-04T14:33:36;11.50;99.90
14471;DHT22;7321;50.802;4.336;2024-02-04T14:36:02;11.60;99.90
14471;DHT22;7321;50.802;4.336;2024-02-04T14:38:29;11.50;99.90
14471;DHT22;7321;50.802;4.336;2024-02-04T14:40:59;11.50;99.90
14471;DHT22;7321;50.802;4.336;2024-02-04T14:43:28;11.70;99.90
14471;DHT22;7321;50.802;4.336;2024-02-04T14:45:53;11.80;99.90
14471;DHT22;7321;50.802;4.336;2024-02-04T14:48:19;11.90;99.90
14471;DHT22;7321;50.802;4.336;2024-02-04T14:50:45;11.90;99.90
14471;DHT22;7321;50.802;4.336;2024-02-04T14:53:11;11.90;99.90
14471;DHT22;7321;50.802;4.336;2024-02-04T14:55:37;11.80;99.90
14471;DHT22;7321;50.802;4.336;2024-02-04T14:58:03;11.80;99.90
14471;DHT22;7321;50.802;4.336;2024-02-04T15:00:30;11.80;99.90
14471;DHT22;7321;50.802;4.336;2024-02-04T15:02:56;11.80;99.90
14471;DHT22;7321;50.802;4.336;2024-02-04T15:05:22;11.80;99.90
14471;DHT22;7321;50.802;4.336;2024-02-04T15:07:48;11.70;99.90
14471;DHT22;7321;50.802;4.336;2024-02-04T15:10:14;11.70;99.90
14471;DHT22;7321;50.802;4.336;2024-02-04T15:12:40;11.80;99.90
14471;DHT22;7321;50.802;4.336;2024-02-04T15:15:08;11.90;99.90
14471;DHT22;7321;50.802;4.336;2024-02-04T15:17:34;12.00;99.90
14471;DHT22;7321;50.802;4.336;2024-02-04T15:20:00;12.10;99.90
14471;DHT22;7321;50.802;4.336;2024-02-04T15:22:26;11.90;99.90
14471;DHT22;7321;50.802;4.336;2024-02-04T15:24:53;11.80;99.90
14471;DHT22;7321;50.802;4.336;2024-02-04T15:27:19;11.80;99.90
14471;DHT22;7321;50.802;4.336;2024-02-04T15:29:47;11.80;99.90
14471;DHT22;7321;50.802;4.336;2024-02-04T15:32:14;11.60;99.90
14471;DHT22;7321;50.802;4.336;2024-02-04T15:34:43;11.60;99.90
14471;DHT22;7321;50.802;4.336;2024-02-04T15:37:10;11.60;99.90
14471;DHT22;7321;50.802;4.336;2024-02-04T15:39:36;11.60;99.90
14471;DHT22;7321;50.802;4.336;2024-02-04T15:42:05;11.60;99.90
14471;DHT22;7321;50.802;4.336;2024-02-04T15:44:31;11.70;99.90
14471;DHT22;7321;50.802;4.336;2024-02-04T15:47:05;11.80;99.90
14471;DHT22;7321;50.802;4.336;2024-02-04T15:49:34;11.90;99.90
14471;DHT22;7321;50.802;4.336;2024-02-04T15:52:01;11.90;99.90
14471;DHT22;7321;50.802;4.336;2024-02-04T15:54:27;11.90;99.90
14471;DHT22;7321;50.802;4.336;2024-02-04T15:57:07;11.80;99.90
14471;DHT22;7321;50.802;4.336;2024-02-04T15:59:49;11.90;99.90
14471;DHT22;7321;50.802;4.336;2024-02-04T16:02:16;11.80;99.90
14471;DHT22;7321;50.802;4.336;2024-02-04T16:04:42;11.70;99.90
14471;DHT22;7321;50.802;4.336;2024-02-04T16:07:13;11.60;99.90
14471;DHT22;7321;50.802;4.336;2024-02-04T16:09:40;11.60;99.90
14471;DHT22;7321;50.802;4.336;2024-02-04T16:12:15;11.50;99.90